Time;durP1;ratioP1;P1;durP2;ratioP2;P2;SDS_P1;SDS_P2;PMS_P1;PMS_P2;Temp;Humidity;BMP_temperature;BMP_pressure;BME280_temperature;BME280_humidity;BME280_pressure;Samples;Min_cycle;Max_cycle;Signal;HPM_P1;HPM_P2
2023/06/27 00:02:17;;;;;;;2.30;0.98;;;20.60;42.00;;;;;;4902818;29;20385;-59
2023/06/27 00:04:46;;;;;;;2.88;1.17;;;20.60;42.10;;;;;;4901549;29;20045;-59
2023/06/27 00:07:13;;;;;;;2.15;1.10;;;20.50;42.10;;;;;;4904492;29;20056;-59
2023/06/27 00:09:40;;;;;;;2.90;1.33;;;20.50;42.20;;;;;;4904018;29;20060;-60
2023/06/27 00:12:09;;;;;;;3.75;1.38;;;20.50;42.20;;;;;;4898497;29;20417;-60
2023/06/27 00:14:37;;;;;;;3.63;1.20;;;20.50;42.30;;;;;;4903065;29;20048;-59
2023/06/27 00:17:07;;;;;;;2.60;1.27;;;20.50;42.40;;;;;;4904165;29;20067;-59
2023/06/27 00:19:34;;;;;;;2.20;1.00;;;20.40;42.40;;;;;;4900994;29;20051;-58
2023/06/27 00:22:04;;;;;;;4.43;1.30;;;20.40;43.00;;;;;;4904495;29;20075;-59
2023/06/27 00:24:31;;;;;;;2.20;1.00;;;20.40;42.60;;;;;;4903419;29;20307;-59
2023/06/27 00:26:58;;;;;;;5.95;1.50;;;20.40;42.80;;;;;;4898419;29;20606;-58
2023/06/27 00:29:26;;;;;;;1.85;1.20;;;20.40;42.80;;;;;;4903003;29;20101;-60
2023/06/27 00:31:53;;;;;;;3.13;1.35;;;20.40;42.90;;;;;;4898985;29;20060;-59
2023/06/27 00:34:20;;;;;;;3.20;1.27;;;20.40;43.10;;;;;;4903271;29;20390;-59
2023/06/27 00:36:48;;;;;;;3.42;1.30;;;20.40;43.20;;;;;;4901182;29;20055;-60
2023/06/27 00:39:16;;;;;;;2.85;1.20;;;20.40;43.40;;;;;;4903516;29;20060;-59
2023/06/27 00:41:43;;;;;;;5.18;1.48;;;20.30;43.50;;;;;;4900255;29;20484;-58
2023/06/27 00:44:11;;;;;;;4.35;1.13;;;20.30;43.50;;;;;;4903130;29;20485;-59
2023/06/27 00:46:39;;;;;;;3.40;1.42;;;20.30;43.60;;;;;;4901273;29;20056;-58
2023/06/27 00:49:08;;;;;;;2.08;1.17;;;20.30;43.60;;;;;;4898899;29;20412;-60
2023/06/27 00:51:36;;;;;;;2.38;1.10;;;20.30;43.60;;;;;;4900715;29;20063;-61
2023/06/27 00:54:03;;;;;;;2.03;1.10;;;20.30;43.60;;;;;;4902361;29;20385;-60
2023/06/27 00:56:32;;;;;;;2.28;1.23;;;20.30;43.60;;;;;;4903348;29;20064;-61
2023/06/27 00:59:02;;;;;;;3.78;1.10;;;20.20;43.70;;;;;;4903953;29;20052;-61
2023/06/27 01:01:30;;;;;;;2.88;1.20;;;20.20;43.80;;;;;;4924161;23;20075;-56
2023/06/27 01:03:57;;;;;;;1.83;1.20;;;20.20;43.90;;;;;;4905976;29;20047;-57
2023/06/27 01:06:34;;;;;;;4.28;1.25;;;20.20;44.10;;;;;;4905881;29;20507;-57
2023/06/27 01:09:05;;;;;;;3.50;1.40;;;20.20;44.20;;;;;;4903573;29;20067;-57
2023/06/27 01:11:40;;;;;;;2.85;1.40;;;20.20;44.20;;;;;;4904475;29;20063;-55
2023/06/27 01:14:10;;;;;;;2.42;1.30;;;20.20;44.30;;;;;;4906098;29;20522;-56
2023/06/27 01:16:39;;;;;;;4.15;1.50;;;20.10;44.30;;;;;;4906765;29;20067;-55
2023/06/27 01:19:09;;;;;;;3.13;1.13;;;20.10;44.30;;;;;;4902831;29;20052;-57
2023/06/27 01:21:39;;;;;;;2.95;1.35;;;20.10;44.40;;;;;;4905297;29;20063;-57
2023/06/27 01:24:08;;;;;;;3.30;1.30;;;20.10;44.50;;;;;;4905465;29;20056;-55
2023/06/27 01:26:35;;;;;;;3.28;1.42;;;20.00;44.40;;;;;;4905331;29;20063;-56
2023/06/27 01:29:02;;;;;;;3.95;1.27;;;20.00;44.50;;;;;;4904894;29;20064;-56
2023/06/27 01:31:36;;;;;;;2.17;1.40;;;20.00;44.50;;;;;;4902148;29;20060;-56
2023/06/27 01:34:07;;;;;;;;;;;20.00;44.70;;;;;;4903127;29;20567;-57
2023/06/27 01:36:40;;;;;;;3.53;1.35;;;20.00;44.50;;;;;;4904644;29;19934;-56
2023/06/27 01:39:14;;;;;;;3.25;1.50;;;20.00;44.80;;;;;;4905458;29;20155;-57
2023/06/27 01:41:44;;;;;;;2.95;1.30;;;20.00;44.90;;;;;;4902960;29;20055;-55
2023/06/27 01:44:15;;;;;;;2.05;1.45;;;20.00;44.90;;;;;;4905420;29;20059;-56
2023/06/27 01:46:43;;;;;;;3.70;1.45;;;20.00;45.10;;;;;;4905120;29;21693;-57
2023/06/27 01:49:11;;;;;;;2.85;1.50;;;19.90;45.10;;;;;;4904830;29;20056;-55
2023/06/27 01:51:40;;;;;;;6.50;1.30;;;19.90;45.00;;;;;;4904634;29;20060;-57
2023/06/27 01:54:08;;;;;;;3.83;1.50;;;19.90;45.00;;;;;;4905241;29;20048;-55
2023/06/27 01:56:36;;;;;;;2.83;1.20;;;19.80;45.00;;;;;;4905916;29;20075;-54
2023/06/27 01:59:06;;;;;;;3.38;1.45;;;19.90;45.00;;;;;;4905272;29;20513;-56
2023/06/27 02:01:33;;;;;;;3.97;1.25;;;19.80;45.00;;;;;;4902784;29;20092;-57
2023/06/27 02:04:03;;;;;;;4.63;1.45;;;19.80;44.90;;;;;;4902551;29;20582;-57
2023/06/27 02:06:30;;;;;;;3.70;1.58;;;19.80;45.00;;;;;;4902758;29;20055;-57
2023/06/27 02:08:59;;;;;;;2.88;1.50;;;19.70;44.90;;;;;;4903874;29;20408;-56
2023/06/27 02:11:28;;;;;;;4.07;1.42;;;19.70;45.00;;;;;;4903136;29;20055;-57
2023/06/27 02:13:55;;;;;;;9.80;2.20;;;19.70;45.00;;;;;;4904851;29;20424;-55
2023/06/27 02:16:22;;;;;;;4.22;1.17;;;19.70;45.00;;;;;;4903819;29;20059;-58
2023/06/27 02:18:49;;;;;;;2.50;1.33;;;19.70;45.00;;;;;;4901181;29;20488;-57
2023/06/27 02:21:17;;;;;;;3.33;1.27;;;19.70;45.00;;;;;;4904768;29;20067;-57
2023/06/27 02:23:44;;;;;;;4.50;1.38;;;19.70;45.00;;;;;;4904844;29;20075;-56
2023/06/27 02:26:11;;;;;;;3.17;1.35;;;19.70;45.00;;;;;;4904176;29;20060;-56
2023/06/27 02:28:40;;;;;;;2.83;1.33;;;19.70;45.10;;;;;;4901930;29;20453;-57
2023/06/27 02:31:07;;;;;;;5.75;1.17;;;19.70;45.10;;;;;;4904746;29;20056;-57
2023/06/27 02:33:34;;;;;;;2.67;1.02;;;19.70;45.00;;;;;;4897457;29;20060;-58
2023/06/27 02:36:02;;;;;;;4.72;1.40;;;19.70;45.10;;;;;;4895390;29;20052;-57
2023/06/27 02:38:30;;;;;;;3.38;1.65;;;19.70;45.10;;;;;;4903206;29;20055;-57
2023/06/27 02:40:57;;;;;;;5.05;1.48;;;19.70;45.10;;;;;;4902454;29;20070;-55
2023/06/27 02:43:24;;;;;;;2.80;1.27;;;19.70;45.10;;;;;;4902617;29;20063;-57
2023/06/27 02:45:53;;;;;;;3.25;1.30;;;19.70;45.10;;;;;;4896180;29;20059;-56
2023/06/27 02:48:20;;;;;;;3.92;1.40;;;19.70;45.10;;;;;;4902617;29;20389;-56
2023/06/27 02:50:50;;;;;;;4.45;1.30;;;19.70;45.10;;;;;;4901466;29;20059;-57
2023/06/27 02:53:18;;;;;;;2.70;1.30;;;19.60;45.00;;;;;;4900819;29;20052;-57
2023/06/27 02:55:45;;;;;;;2.85;1.35;;;19.70;45.10;;;;;;4902491;29;20080;-56
2023/06/27 02:58:12;;;;;;;2.35;1.52;;;19.70;45.10;;;;;;4901509;29;20059;-57
2023/06/27 03:00:40;;;;;;;4.70;1.48;;;19.70;45.10;;;;;;4903708;29;20060;-56
2023/06/27 03:03:08;;;;;;;3.63;1.42;;;19.70;45.20;;;;;;4905725;29;20056;-56
2023/06/27 03:05:35;;;;;;;3.10;1.30;;;19.60;45.10;;;;;;4902601;29;20063;-57
2023/06/27 03:08:02;;;;;;;2.47;1.40;;;19.60;45.10;;;;;;4904678;29;20434;-57
2023/06/27 03:10:30;;;;;;;3.38;1.40;;;19.60;45.20;;;;;;4905781;29;20067;-57
2023/06/27 03:12:57;;;;;;;4.57;1.52;;;19.60;45.20;;;;;;4904947;29;20067;-57
2023/06/27 03:15:24;;;;;;;4.78;1.40;;;19.60;45.20;;;;;;4905474;29;20052;-56
2023/06/27 03:17:51;;;;;;;4.30;1.17;;;19.60;45.30;;;;;;4905688;29;20502;-57
2023/06/27 03:20:21;;;;;;;2.58;1.45;;;19.60;45.30;;;;;;4901606;29;20060;-56
2023/06/27 03:22:49;;;;;;;3.85;1.40;;;19.60;45.40;;;;;;4906380;29;20492;-58
2023/06/27 03:25:16;;;;;;;5.43;1.70;;;19.60;45.40;;;;;;4902670;29;20048;-57
2023/06/27 03:27:43;;;;;;;4.55;1.40;;;19.60;45.50;;;;;;4903890;29;20071;-58
2023/06/27 03:30:11;;;;;;;4.72;1.65;;;19.60;45.50;;;;;;4905043;29;20496;-57
2023/06/27 03:32:38;;;;;;;3.80;1.58;;;19.60;45.50;;;;;;4904793;29;20064;-57
2023/06/27 03:35:06;;;;;;;4.65;1.80;;;19.60;45.60;;;;;;4903829;29;20064;-56
2023/06/27 03:37:35;;;;;;;4.25;1.48;;;19.60;45.60;;;;;;4902027;29;20064;-58
2023/06/27 03:40:03;;;;;;;6.57;1.70;;;19.60;45.60;;;;;;4904511;29;20060;-56
2023/06/27 03:42:31;;;;;;;2.60;1.52;;;19.60;45.60;;;;;;4900954;29;20056;-57
2023/06/27 03:44:58;;;;;;;3.15;1.25;;;19.60;45.70;;;;;;4924135;29;20480;-58
2023/06/27 03:47:27;;;;;;;4.47;1.70;;;19.60;45.70;;;;;;4923957;29;20055;-57
2023/06/27 03:49:54;;;;;;;3.05;1.30;;;19.60;45.70;;;;;;4921826;29;20518;-57
2023/06/27 03:52:21;;;;;;;2.78;1.70;;;19.60;45.70;;;;;;4922369;29;20059;-57
2023/06/27 03:54:50;;;;;;;4.90;1.83;;;19.60;45.70;;;;;;4922709;29;20074;-56
2023/06/27 03:57:17;;;;;;;4.28;1.80;;;19.60;45.80;;;;;;4920031;29;20491;-57
2023/06/27 03:59:44;;;;;;;5.20;1.92;;;19.60;45.80;;;;;;4919892;29;20423;-57
2023/06/27 04:02:11;;;;;;;6.07;1.58;;;19.60;45.80;;;;;;4921716;29;20067;-58
2023/06/27 04:04:39;;;;;;;2.83;1.33;;;19.60;45.80;;;;;;4924562;29;20055;-58
2023/06/27 04:07:06;;;;;;;2.80;1.50;;;19.60;45.80;;;;;;4923079;29;20071;-57
2023/06/27 04:09:34;;;;;;;3.45;1.70;;;19.60;45.80;;;;;;4921138;29;20071;-56
2023/06/27 04:12:02;;;;;;;3.00;1.60;;;19.60;45.80;;;;;;4921013;29;20063;-57
2023/06/27 04:14:31;;;;;;;3.63;1.73;;;19.60;45.80;;;;;;4923058;29;20056;-56
2023/06/27 04:16:58;;;;;;;3.33;1.50;;;19.60;45.90;;;;;;4921911;29;20051;-56
2023/06/27 04:19:25;;;;;;;2.92;1.38;;;19.60;45.90;;;;;;4919667;29;20056;-56
2023/06/27 04:21:52;;;;;;;3.67;1.52;;;19.60;45.90;;;;;;4920573;29;20385;-56
2023/06/27 04:24:19;;;;;;;4.13;1.75;;;19.60;46.00;;;;;;4923412;29;20070;-56
2023/06/27 04:26:47;;;;;;;4.88;1.42;;;19.60;46.00;;;;;;4921971;29;20055;-56
2023/06/27 04:29:16;;;;;;;5.45;1.85;;;19.60;46.00;;;;;;4922663;29;20431;-57
2023/06/27 04:31:43;;;;;;;4.53;1.70;;;19.60;46.10;;;;;;4924103;29;20496;-56
2023/06/27 04:34:10;;;;;;;3.08;1.52;;;19.60;46.20;;;;;;4922618;29;20063;-56
2023/06/27 04:36:41;;;;;;;5.28;1.92;;;19.60;46.20;;;;;;4922588;29;20472;-56
2023/06/27 04:39:09;;;;;;;11.07;2.20;;;19.60;46.20;;;;;;4922176;29;20059;-57
2023/06/27 04:41:36;;;;;;;6.03;1.83;;;19.60;46.30;;;;;;4917668;29;20059;-57
2023/06/27 04:44:03;;;;;;;8.48;2.10;;;19.60;46.30;;;;;;4920205;29;20183;-56
2023/06/27 04:46:32;;;;;;;4.47;1.30;;;19.60;46.30;;;;;;4923045;29;20440;-58
2023/06/27 04:49:00;;;;;;;4.47;1.52;;;19.60;46.40;;;;;;4922752;29;20055;-58
2023/06/27 04:51:29;;;;;;;3.97;1.70;;;19.60;46.40;;;;;;4920571;29;20062;-57
2023/06/27 04:53:56;;;;;;;6.47;2.15;;;19.60;46.30;;;;;;4922078;29;20492;-57
2023/06/27 04:56:24;;;;;;;4.93;2.00;;;19.60;46.40;;;;;;4922302;29;20055;-57
2023/06/27 04:58:52;;;;;;;3.80;1.55;;;19.70;46.40;;;;;;4924115;29;20503;-57
2023/06/27 05:01:20;;;;;;;4.18;1.65;;;19.70;46.50;;;;;;4922016;29;20060;-58
2023/06/27 05:03:48;;;;;;;5.15;1.83;;;19.70;46.50;;;;;;4922946;29;20055;-57
2023/06/27 05:06:15;;;;;;;4.13;1.60;;;19.70;46.50;;;;;;4922108;29;20514;-56
2023/06/27 05:08:44;;;;;;;2.33;1.30;;;19.70;46.50;;;;;;4922608;29;20503;-57
2023/06/27 05:11:11;;;;;;;3.92;1.42;;;19.70;46.50;;;;;;4925037;29;20056;-56
2023/06/27 05:13:38;;;;;;;3.70;1.67;;;19.70;46.50;;;;;;4920972;29;20431;-58
2023/06/27 05:16:05;;;;;;;3.90;1.67;;;19.70;46.60;;;;;;4917876;29;20055;-57
2023/06/27 05:18:33;;;;;;;5.45;1.73;;;19.70;46.60;;;;;;4922578;29;20510;-56
2023/06/27 05:21:01;;;;;;;3.95;1.75;;;19.70;46.70;;;;;;4922544;29;20055;-57
2023/06/27 05:23:29;;;;;;;4.63;1.83;;;19.70;46.70;;;;;;4923966;29;20060;-57
2023/06/27 05:25:56;;;;;;;2.67;1.65;;;19.70;46.70;;;;;;4922628;29;20487;-58
2023/06/27 05:28:23;;;;;;;5.35;1.60;;;19.70;46.80;;;;;;4922887;29;20060;-57
2023/06/27 05:30:50;;;;;;;8.20;2.00;;;19.70;46.90;;;;;;4922453;29;20157;-57
2023/06/27 05:33:18;;;;;;;4.78;1.80;;;19.70;47.00;;;;;;4922541;29;20059;-57
2023/06/27 05:35:45;;;;;;;4.60;1.75;;;19.70;47.10;;;;;;4920463;29;20516;-58
2023/06/27 05:38:14;;;;;;;5.72;1.67;;;19.70;47.20;;;;;;4923671;29;20069;-57
2023/06/27 05:40:41;;;;;;;7.05;1.60;;;19.80;47.40;;;;;;4923579;29;20060;-57
2023/06/27 05:43:09;;;;;;;3.78;1.60;;;19.80;47.50;;;;;;4922182;29;20396;-57
2023/06/27 05:45:36;;;;;;;5.97;1.92;;;19.80;47.70;;;;;;4922808;29;20063;-57
2023/06/27 05:48:04;;;;;;;4.90;1.80;;;19.80;47.60;;;;;;4924543;29;20066;-58
2023/06/27 05:50:31;;;;;;;5.88;1.92;;;19.80;47.70;;;;;;4925566;29;20059;-58
2023/06/27 05:52:58;;;;;;;7.18;2.10;;;19.90;47.80;;;;;;4926462;29;20067;-57
2023/06/27 05:55:27;;;;;;;6.07;1.77;;;19.90;47.80;;;;;;4926379;29;20480;-56
2023/06/27 05:57:54;;;;;;;5.72;1.88;;;19.90;47.90;;;;;;4926605;29;20056;-57
2023/06/27 06:00:21;;;;;;;6.72;2.05;;;20.00;47.90;;;;;;4924296;29;20051;-57
2023/06/27 06:02:49;;;;;;;5.75;2.28;;;20.00;47.90;;;;;;4925235;29;20063;-57
2023/06/27 06:05:17;;;;;;;4.05;1.65;;;20.00;47.80;;;;;;4926989;29;20066;-58
2023/06/27 06:07:45;;;;;;;5.05;1.50;;;20.00;47.90;;;;;;4926306;29;20518;-57
2023/06/27 06:10:13;;;;;;;8.95;2.17;;;20.10;48.00;;;;;;4924955;29;20055;-57
2023/06/27 06:12:43;;;;;;;10.07;2.20;;;20.10;47.90;;;;;;4925619;29;20059;-57
2023/06/27 06:15:10;;;;;;;8.10;2.00;;;20.10;47.80;;;;;;4925355;29;20503;-58
2023/06/27 06:17:37;;;;;;;5.72;1.58;;;20.20;47.80;;;;;;4923412;29;20484;-55
2023/06/27 06:20:09;;;;;;;8.93;2.08;;;20.20;47.80;;;;;;4925597;29;20058;-58
2023/06/27 06:22:36;;;;;;;5.35;2.13;;;20.30;47.90;;;;;;4921277;29;20078;-55
2023/06/27 06:25:05;;;;;;;9.00;2.65;;;20.30;47.70;;;;;;4923300;29;20574;-57
2023/06/27 06:27:32;;;;;;;4.07;1.88;;;20.30;47.80;;;;;;4917659;29;20051;-57
2023/06/27 06:30:01;;;;;;;6.95;2.85;;;20.40;47.90;;;;;;4920054;29;20056;-57
2023/06/27 06:32:28;;;;;;;5.10;1.92;;;20.40;47.90;;;;;;4919210;29;20059;-57
2023/06/27 06:34:55;;;;;;;7.85;2.53;;;20.40;47.80;;;;;;4921032;29;20608;-56
2023/06/27 06:37:23;;;;;;;8.18;2.55;;;20.50;47.80;;;;;;4919536;29;20062;-58
2023/06/27 06:39:51;;;;;;;9.48;2.28;;;20.50;47.60;;;;;;4921636;29;20242;-54
2023/06/27 06:42:18;;;;;;;6.13;1.95;;;20.60;47.50;;;;;;4921074;29;20063;-56
2023/06/27 06:44:47;;;;;;;7.40;2.28;;;20.60;47.40;;;;;;4918548;29;20063;-55
2023/06/27 06:47:16;;;;;;;7.22;2.25;;;20.70;47.40;;;;;;4918981;29;20090;-57
2023/06/27 06:49:43;;;;;;;11.63;2.72;;;20.70;47.40;;;;;;4916716;29;20079;-56
2023/06/27 06:52:10;;;;;;;8.80;2.03;;;20.80;47.40;;;;;;4919815;29;20064;-58
2023/06/27 06:54:38;;;;;;;7.20;2.28;;;20.80;47.30;;;;;;4921042;29;20060;-58
2023/06/27 06:57:06;;;;;;;12.57;2.67;;;20.80;47.30;;;;;;4920538;29;20067;-56
2023/06/27 06:59:34;;;;;;;12.55;2.30;;;20.90;47.50;;;;;;4920609;29;20059;-56
2023/06/27 07:02:01;;;;;;;13.10;2.20;;;20.90;47.60;;;;;;4918869;29;20409;-57
2023/06/27 07:04:29;;;;;;;11.13;2.63;;;20.90;47.60;;;;;;4918437;29;20060;-57
2023/06/27 07:06:57;;;;;;;3.85;1.70;;;20.90;47.30;;;;;;4916389;29;20052;-56
2023/06/27 07:09:24;;;;;;;8.82;2.60;;;21.00;47.30;;;;;;4920354;29;20059;-57
2023/06/27 07:11:51;;;;;;;8.10;2.53;;;21.00;47.10;;;;;;4919161;29;20055;-55
2023/06/27 07:14:18;;;;;;;9.35;2.42;;;21.10;47.00;;;;;;4920689;29;20055;-57
2023/06/27 07:16:46;;;;;;;7.90;1.98;;;21.10;47.00;;;;;;4919136;29;20051;-57
2023/06/27 07:19:13;;;;;;;7.20;2.50;;;21.10;47.00;;;;;;4918079;29;20059;-56
2023/06/27 07:21:42;;;;;;;7.93;2.08;;;21.10;47.00;;;;;;4915935;29;20063;-55
2023/06/27 07:24:10;;;;;;;11.32;2.90;;;21.10;47.00;;;;;;4921657;29;20047;-60
2023/06/27 07:26:37;;;;;;;6.95;1.88;;;21.10;46.70;;;;;;4919716;29;20464;-57
2023/06/27 07:29:04;;;;;;;11.23;2.15;;;21.10;46.80;;;;;;4919211;29;20055;-57
2023/06/27 07:31:31;;;;;;;12.10;2.10;;;21.20;47.00;;;;;;4918844;29;20406;-55
2023/06/27 07:33:59;;;;;;;11.82;3.10;;;21.20;47.00;;;;;;4918900;29;20051;-59
2023/06/27 07:36:26;;;;;;;12.80;2.90;;;21.20;47.00;;;;;;4918303;29;20055;-56
2023/06/27 07:38:58;;;;;;;7.60;2.20;;;21.30;46.70;;;;;;4913775;29;20063;-57
2023/06/27 07:41:25;;;;;;;6.78;2.13;;;21.30;46.80;;;;;;4917621;29;20059;-59
2023/06/27 07:43:53;;;;;;;6.60;1.95;;;21.30;46.80;;;;;;4919117;29;20427;-55
2023/06/27 07:46:20;;;;;;;4.90;1.88;;;21.40;46.80;;;;;;4916014;29;20055;-58
2023/06/27 07:48:47;;;;;;;5.30;1.63;;;21.40;46.60;;;;;;4921613;29;20059;-57
2023/06/27 07:51:14;;;;;;;8.50;1.60;;;21.50;46.40;;;;;;4917904;29;20056;-58
2023/06/27 07:53:42;;;;;;;9.15;2.15;;;21.50;46.20;;;;;;4927693;29;20052;-55
2023/06/27 07:56:10;;;;;;;7.95;2.05;;;21.50;46.00;;;;;;4928412;29;20444;-55
2023/06/27 07:58:38;;;;;;;8.73;2.13;;;21.60;46.10;;;;;;4925764;29;20052;-56
2023/06/27 08:01:05;;;;;;;5.13;1.58;;;21.60;46.30;;;;;;4922475;29;20059;-58
2023/06/27 08:03:32;;;;;;;8.90;2.00;;;21.70;46.10;;;;;;4910092;29;20493;-57
2023/06/27 08:06:03;;;;;;;6.78;1.73;;;21.70;45.80;;;;;;4906786;29;20060;-57
2023/06/27 08:08:31;;;;;;;5.80;1.55;;;21.80;45.70;;;;;;4908616;29;20090;-58
2023/06/27 08:10:58;;;;;;;5.32;1.85;;;21.80;45.70;;;;;;4908195;29;20534;-58
2023/06/27 08:13:26;;;;;;;6.20;1.70;;;21.80;45.20;;;;;;4909952;29;20055;-56
2023/06/27 08:15:54;;;;;;;5.93;2.15;;;21.80;45.10;;;;;;4910034;29;20070;-58
2023/06/27 08:18:22;;;;;;;5.95;1.70;;;21.90;44.90;;;;;;4911110;29;20052;-58
2023/06/27 08:20:49;;;;;;;7.22;2.05;;;21.90;44.70;;;;;;4909892;29;20148;-57
2023/06/27 08:23:16;;;;;;;5.38;1.70;;;22.00;44.80;;;;;;4908736;29;20149;-57
2023/06/27 08:25:43;;;;;;;5.20;1.77;;;22.00;44.60;;;;;;4909810;29;20055;-57
2023/06/27 08:28:11;;;;;;;9.05;2.38;;;22.10;44.50;;;;;;4911338;29;20047;-58
2023/06/27 08:30:41;;;;;;;4.65;1.67;;;22.10;43.50;;;;;;4910075;29;20561;-56
2023/06/27 08:33:09;;;;;;;6.82;1.73;;;22.10;43.40;;;;;;4906499;29;20535;-57
2023/06/27 08:35:37;;;;;;;5.95;1.77;;;22.20;43.80;;;;;;4908024;29;20083;-57
2023/06/27 08:38:05;;;;;;;8.77;1.88;;;22.20;43.50;;;;;;4910542;29;20051;-56
2023/06/27 08:40:35;;;;;;;5.75;1.85;;;22.30;43.60;;;;;;4908410;29;20056;-56
2023/06/27 08:43:03;;;;;;;10.40;1.90;;;22.30;43.40;;;;;;4904469;29;20652;-57
2023/06/27 08:45:30;;;;;;;7.45;1.65;;;22.40;43.20;;;;;;4907525;29;20059;-57
2023/06/27 08:48:00;;;;;;;11.18;2.30;;;22.50;43.30;;;;;;4907783;29;20055;-56
2023/06/27 08:50:29;;;;;;;6.28;1.88;;;22.50;42.50;;;;;;4907898;29;20523;-59
2023/06/27 08:52:58;;;;;;;7.18;1.90;;;22.60;43.40;;;;;;4908681;29;20048;-56
2023/06/27 08:55:33;;;;;;;5.47;1.70;;;22.70;42.30;;;;;;4909664;29;20076;-58
2023/06/27 08:58:04;;;;;;;5.85;2.00;;;22.70;41.70;;;;;;4906648;29;20071;-57
2023/06/27 09:00:31;;;;;;;7.13;1.75;;;22.80;41.90;;;;;;4906484;29;20060;-55
2023/06/27 09:03:00;;;;;;;4.88;1.60;;;22.90;42.00;;;;;;4911469;29;20060;-54
2023/06/27 09:05:28;;;;;;;5.93;2.05;;;22.90;42.00;;;;;;4911308;29;20614;-53
2023/06/27 09:07:55;;;;;;;10.48;1.88;;;23.00;42.20;;;;;;4913122;29;20500;-54
2023/06/27 09:10:23;;;;;;;9.30;2.10;;;23.10;42.20;;;;;;4910282;29;20056;-59
2023/06/27 09:12:53;;;;;;;7.70;1.42;;;23.20;42.00;;;;;;4911083;29;20059;-51
2023/06/27 09:15:20;;;;;;;6.95;1.55;;;23.30;41.20;;;;;;4911604;29;20500;-57
2023/06/27 09:17:48;;;;;;;7.78;1.50;;;23.30;40.90;;;;;;4912826;29;20063;-55
2023/06/27 09:20:19;;;;;;;5.22;1.42;;;23.40;41.10;;;;;;4911490;29;20052;-54
2023/06/27 09:22:46;;;;;;;3.60;1.60;;;23.40;40.90;;;;;;4911152;29;20530;-56
2023/06/27 09:25:15;;;;;;;5.60;1.70;;;23.50;41.10;;;;;;4915561;29;20500;-54
2023/06/27 09:27:43;;;;;;;6.18;1.40;;;23.50;41.10;;;;;;4915673;29;20052;-57
2023/06/27 09:30:12;;;;;;;4.38;1.60;;;23.50;41.10;;;;;;4917621;29;20526;-55
2023/06/27 09:32:53;;;;;;;7.80;1.85;;;23.50;41.10;;;;;;4916441;29;20613;-57
2023/06/27 09:35:23;;;;;;;8.40;1.50;;;23.60;41.00;;;;;;4913746;29;20075;-50
2023/06/27 09:37:50;;;;;;;9.25;1.52;;;23.70;41.20;;;;;;4914195;29;20682;-55
2023/06/27 09:40:20;;;;;;;10.73;1.85;;;23.70;40.20;;;;;;4915087;29;20056;-56
2023/06/27 09:42:51;;;;;;;6.32;1.23;;;23.70;39.90;;;;;;4915231;29;20543;-54
2023/06/27 09:45:19;;;;;;;5.32;1.67;;;23.70;40.10;;;;;;4915042;29;20419;-52
2023/06/27 09:47:49;;;;;;;5.50;1.65;;;23.70;40.20;;;;;;4914887;29;20067;-53
2023/06/27 09:50:16;;;;;;;8.75;1.58;;;23.70;40.00;;;;;;4912431;29;20051;-58
2023/06/27 09:52:52;;;;;;;4.22;1.27;;;23.80;40.40;;;;;;4915869;29;20055;-56
2023/06/27 09:55:20;;;;;;;7.28;1.70;;;23.80;39.80;;;;;;4916391;29;20055;-51
2023/06/27 09:57:48;;;;;;;7.57;1.60;;;23.90;39.90;;;;;;4914092;29;20488;-54
2023/06/27 10:00:18;;;;;;;3.92;1.50;;;23.90;38.90;;;;;;4915183;29;20067;-50
2023/06/27 10:02:48;;;;;;;4.82;1.58;;;24.00;38.00;;;;;;4917594;29;20067;-47
2023/06/27 10:05:15;;;;;;;2.75;1.38;;;23.90;39.20;;;;;;4916208;29;20598;-57
2023/06/27 10:07:44;;;;;;;4.60;1.85;;;23.90;38.90;;;;;;4918187;29;20056;-58
2023/06/27 10:10:12;;;;;;;4.18;1.25;;;24.00;39.20;;;;;;4913531;29;20423;-60
2023/06/27 10:12:40;;;;;;;3.97;1.30;;;24.00;38.50;;;;;;4915488;29;20500;-48
2023/06/27 10:15:10;;;;;;;6.88;1.75;;;24.00;38.60;;;;;;4915406;29;20056;-56
2023/06/27 10:17:38;;;;;;;10.55;2.45;;;24.00;38.70;;;;;;4919342;29;20059;-50
2023/06/27 10:20:10;;;;;;;6.18;1.52;;;24.10;38.40;;;;;;4915306;29;20060;-59
2023/06/27 10:22:41;;;;;;;4.50;1.50;;;24.10;37.80;;;;;;4913728;29;20060;-56
2023/06/27 10:25:09;;;;;;;9.15;1.70;;;24.10;38.00;;;;;;4915825;29;20055;-57
2023/06/27 10:27:42;;;;;;;5.18;1.63;;;24.10;38.10;;;;;;4914404;29;20062;-52
2023/06/27 10:30:23;;;;;;;7.80;1.80;;;24.00;39.00;;;;;;4912143;29;20059;-57
2023/06/27 10:32:51;;;;;;;5.72;1.50;;;24.10;38.50;;;;;;4915684;29;20080;-59
2023/06/27 10:35:24;;;;;;;7.38;1.60;;;24.10;38.90;;;;;;4911134;29;20604;-55
2023/06/27 10:38:07;;;;;;;4.90;1.60;;;24.10;39.40;;;;;;4913765;29;20062;-60
2023/06/27 10:41:11;;;;;;;7.05;1.50;;;24.20;38.60;;;;;;4913656;29;20079;-56
2023/06/27 10:43:41;;;;;;;4.93;1.58;;;24.10;38.50;;;;;;4915684;29;20356;-57
2023/06/27 10:46:10;;;;;;;6.47;1.73;;;24.20;38.50;;;;;;4913229;29;20582;-56
2023/06/27 10:48:50;;;;;;;3.70;1.40;;;24.20;38.70;;;;;;4913585;29;20380;-55
2023/06/27 10:51:19;;;;;;;6.25;1.58;;;24.20;38.40;;;;;;4914114;29;20047;-57
2023/06/27 10:54:15;;;;;;;8.73;1.65;;;24.30;38.50;;;;;;4916546;29;20055;-55
2023/06/27 10:56:44;;;;;;;4.63;1.55;;;24.40;37.70;;;;;;4915202;29;20067;-62
2023/06/27 10:59:14;;;;;;;4.97;1.58;;;24.40;37.20;;;;;;4916387;29;20052;-59
2023/06/27 11:01:43;;;;;;;4.32;1.17;;;24.40;36.00;;;;;;4914277;29;20069;-59
2023/06/27 11:04:17;;;;;;;4.68;1.40;;;24.40;36.10;;;;;;4915941;29;20055;-56
2023/06/27 11:06:45;;;;;;;4.00;1.50;;;24.40;35.90;;;;;;4916288;29;20059;-57
2023/06/27 11:09:14;;;;;;;8.48;1.73;;;24.40;36.00;;;;;;4917540;29;20047;-58
2023/06/27 11:11:42;;;;;;;3.78;1.70;;;24.50;35.30;;;;;;4916667;29;20407;-61
2023/06/27 11:14:11;;;;;;;10.48;2.00;;;24.50;35.50;;;;;;4913719;29;20059;-60
2023/06/27 11:16:39;;;;;;;7.63;1.40;;;24.50;34.10;;;;;;4912289;29;20060;-60
2023/06/27 11:19:08;;;;;;;3.00;1.25;;;24.50;34.30;;;;;;4911445;29;20047;-59
2023/06/27 11:21:38;;;;;;;6.07;1.85;;;24.50;35.40;;;;;;4912788;29;20059;-61
2023/06/27 11:24:07;;;;;;;7.10;1.95;;;24.50;35.50;;;;;;4913321;29;20055;-60
2023/06/27 11:26:34;;;;;;;6.05;1.75;;;24.50;35.30;;;;;;4910164;29;20059;-58
2023/06/27 11:29:03;;;;;;;12.07;1.73;;;24.50;35.00;;;;;;4910842;29;20052;-57
2023/06/27 11:31:30;;;;;;;6.78;1.90;;;24.50;35.40;;;;;;4909773;29;20063;-59
2023/06/27 11:33:59;;;;;;;5.82;2.00;;;24.50;36.10;;;;;;4915688;29;20062;-57
2023/06/27 11:36:26;;;;;;;5.03;1.67;;;24.50;36.10;;;;;;4912229;29;20059;-58
2023/06/27 11:38:55;;;;;;;6.43;2.25;;;24.50;35.00;;;;;;4913270;29;20413;-56
2023/06/27 11:41:22;;;;;;;4.90;1.60;;;24.50;34.90;;;;;;4912971;29;20067;-56
2023/06/27 11:43:49;;;;;;;3.50;1.33;;;24.50;35.30;;;;;;4914591;29;20059;-55
2023/06/27 11:46:19;;;;;;;6.55;1.83;;;24.50;35.70;;;;;;4911374;29;20082;-58
2023/06/27 11:48:47;;;;;;;7.18;1.73;;;24.50;34.70;;;;;;4913522;29;20071;-59
2023/06/27 11:51:15;;;;;;;5.00;1.80;;;24.50;34.90;;;;;;4911927;29;20494;-58
2023/06/27 11:53:49;;;;;;;9.15;1.60;;;24.50;34.80;;;;;;4914783;29;20060;-60
2023/06/27 11:56:16;;;;;;;5.87;1.77;;;24.50;34.70;;;;;;4911254;29;20519;-55
2023/06/27 11:58:46;;;;;;;4.20;1.30;;;24.50;35.80;;;;;;4916807;29;20069;-56
2023/06/27 12:01:15;;;;;;;6.25;1.50;;;24.60;35.30;;;;;;4912108;29;20066;-57
2023/06/27 12:03:47;;;;;;;4.70;1.55;;;24.60;35.30;;;;;;4912422;29;20756;-57
2023/06/27 12:06:26;;;;;;;3.75;1.60;;;24.70;35.20;;;;;;4910461;29;20052;-57
2023/06/27 12:08:53;;;;;;;9.35;2.05;;;24.70;35.70;;;;;;4911694;29;20052;-56
2023/06/27 12:11:27;;;;;;;5.68;2.10;;;24.80;35.60;;;;;;4911991;29;20477;-60
2023/06/27 12:13:54;;;;;;;4.47;1.70;;;24.80;35.10;;;;;;4911687;29;20522;-56
2023/06/27 12:16:29;;;;;;;3.97;1.60;;;24.90;35.20;;;;;;4910556;29;20055;-52
2023/06/27 12:19:04;;;;;;;10.75;1.85;;;24.90;35.60;;;;;;4911882;29;20044;-59
2023/06/27 12:21:33;;;;;;;3.03;1.40;;;24.90;34.80;;;;;;4911156;29;20064;-55
2023/06/27 12:24:00;;;;;;;5.35;1.90;;;25.00;35.40;;;;;;4912842;29;20070;-60
2023/06/27 12:26:27;;;;;;;5.57;1.70;;;25.00;35.20;;;;;;4911044;29;20064;-56
2023/06/27 12:28:55;;;;;;;6.35;2.15;;;25.10;35.10;;;;;;4911937;29;20055;-54
2023/06/27 12:31:22;;;;;;;9.68;2.20;;;25.10;35.70;;;;;;4913484;29;20052;-56
2023/06/27 12:33:51;;;;;;;5.70;1.85;;;25.10;35.50;;;;;;4914569;29;20427;-54
2023/06/27 12:36:19;;;;;;;7.05;2.25;;;25.10;35.70;;;;;;4914346;29;20067;-53
2023/06/27 12:38:48;;;;;;;7.60;2.00;;;25.20;35.30;;;;;;4913258;29;20094;-56
2023/06/27 12:41:18;;;;;;;5.97;1.77;;;25.20;34.80;;;;;;4912240;29;20070;-56
2023/06/27 12:43:46;;;;;;;4.68;1.38;;;25.20;34.80;;;;;;4912195;29;20052;-57
2023/06/27 12:46:13;;;;;;;4.60;1.50;;;25.20;35.10;;;;;;4914004;29;20059;-57
2023/06/27 12:48:41;;;;;;;6.38;1.63;;;25.30;34.10;;;;;;4910280;29;20059;-59
2023/06/27 12:51:09;;;;;;;5.93;1.65;;;25.30;33.10;;;;;;4910818;29;20054;-56
2023/06/27 12:53:36;;;;;;;5.38;1.60;;;25.40;32.90;;;;;;4912381;29;20978;-57